createdAt,value
2018-12-06T00:00:44.546Z,101091.03
2018-12-06T00:01:48.721Z,101089.23
2018-12-06T00:02:52.719Z,101080.43
2018-12-06T00:03:56.780Z,101084.31
2018-12-06T00:05:00.833Z,101089.61
2018-12-06T00:06:04.988Z,101082.98
2018-12-06T00:07:09.002Z,101085.03
2018-12-06T00:08:16.230Z,101090.71
2018-12-06T00:09:20.198Z,101087.69
2018-12-06T00:10:24.202Z,101080.58
2018-12-06T00:11:28.237Z,101086.27
2018-12-06T00:12:32.314Z,101083.95
2018-12-06T00:13:36.277Z,101083.95
2018-12-06T00:14:40.306Z,101084.33
2018-12-06T00:15:44.286Z,101082.44
2018-12-06T00:16:55.783Z,101079.28
2018-12-06T00:17:59.792Z,101080.98
2018-12-06T00:19:08.614Z,101082.31
2018-12-06T00:20:12.674Z,101083.64
2018-12-06T00:21:16.748Z,101078.33
2018-12-06T00:22:20.902Z,101082.31
2018-12-06T00:23:25.277Z,101086.19
2018-12-06T00:24:29.404Z,101087.98
2018-12-06T00:25:33.498Z,101085.81
2018-12-06T00:26:37.630Z,101089.41
2018-12-06T00:27:41.688Z,101092.91
2018-12-06T00:28:45.730Z,101091.20
2018-12-06T00:30:01.214Z,101089.88
2018-12-06T00:31:05.221Z,101088.94
2018-12-06T00:32:09.251Z,101091.59
2018-12-06T00:33:13.307Z,101087.01
2018-12-06T00:34:17.495Z,101090.51
2018-12-06T00:35:21.777Z,101087.86
2018-12-06T00:36:25.799Z,101083.78
2018-12-06T00:37:29.967Z,101079.05
2018-12-06T00:38:34.126Z,101080.38
2018-12-06T00:39:38.159Z,101081.45
2018-12-06T00:40:42.800Z,101082.31
2018-12-06T00:41:46.843Z,101087.61
2018-12-06T00:42:50.903Z,101086.66
2018-12-06T00:43:55.036Z,101082.21
2018-12-06T00:45:01.866Z,101084.73
2018-12-06T00:46:05.963Z,101089.66
2018-12-06T00:47:09.987Z,101085.59
2018-12-06T00:48:14.095Z,101088.23
2018-12-06T00:49:18.215Z,101084.27
2018-12-06T00:50:22.317Z,101083.31
2018-12-06T00:51:26.371Z,101082.84
2018-12-06T00:52:30.394Z,101092.46
2018-12-06T00:53:34.539Z,101084.89
2018-12-06T00:54:38.676Z,101089.71
2018-12-06T00:55:42.752Z,101090.44
2018-12-06T00:56:46.860Z,101081.28
2018-12-06T00:57:50.911Z,101081.16
2018-12-06T00:58:54.957Z,101082.01
2018-12-06T00:59:58.994Z,101088.16
2018-12-06T01:01:03.087Z,101086.94
2018-12-06T01:02:09.086Z,101081.16
2018-12-06T01:03:13.207Z,101077.66
2018-12-06T01:04:17.327Z,101078.63
2018-12-06T01:05:21.453Z,101076.80
2018-12-06T01:06:25.689Z,101081.77
2018-12-06T01:07:29.834Z,101076.93
2018-12-06T01:08:33.970Z,101076.93
2018-12-06T01:09:38.048Z,101083.56
2018-12-06T01:10:42.199Z,101083.56
2018-12-06T01:11:46.236Z,101074.28
2018-12-06T01:12:50.354Z,101078.63
2018-12-06T01:13:54.393Z,101075.98
2018-12-06T01:14:58.446Z,101075.48
2018-12-06T01:16:02.697Z,101074.66
2018-12-06T01:17:06.855Z,101075.00
2018-12-06T01:18:11.000Z,101074.91
2018-12-06T01:19:15.020Z,101074.43
2018-12-06T01:20:19.068Z,101078.88
2018-12-06T01:21:23.243Z,101071.78
2018-12-06T01:22:27.279Z,101069.12
2018-12-06T01:23:31.551Z,101070.08
2018-12-06T01:24:35.695Z,101071.41
2018-12-06T01:25:39.817Z,101072.73
2018-12-06T01:26:43.842Z,101070.93
2018-12-06T01:27:47.986Z,101073.11
2018-12-06T01:28:52.104Z,101074.53
2018-12-06T01:29:56.217Z,101070.55
2018-12-06T01:31:00.399Z,101072.01
2018-12-06T01:32:04.496Z,101072.83
2018-12-06T01:33:08.698Z,101074.53
2018-12-06T01:34:12.834Z,101073.67
2018-12-06T01:35:16.918Z,101071.02
2018-12-06T01:36:21.000Z,101078.03
2018-12-06T01:37:25.071Z,101075.76
2018-12-06T01:38:29.103Z,101078.75
2018-12-06T01:39:33.417Z,101079.51
2018-12-06T01:40:37.464Z,101078.18
2018-12-06T01:41:41.625Z,101078.18
2018-12-06T01:42:45.690Z,101074.08
2018-12-06T01:43:49.879Z,101079.38
2018-12-06T01:44:53.906Z,101069.24
2018-12-06T01:45:57.963Z,101075.40
2018-12-06T01:47:02.040Z,101076.25
2018-12-06T01:48:06.410Z,101072.88
2018-12-06T01:49:10.451Z,101074.30
2018-12-06T01:50:14.701Z,101077.08
2018-12-06T01:51:18.906Z,101078.41
2018-12-06T01:52:22.943Z,101073.58
2018-12-06T01:53:27.022Z,101081.06
2018-12-06T01:54:31.051Z,101076.70
2018-12-06T01:55:35.212Z,101074.91
2018-12-06T01:56:39.295Z,101066.09
2018-12-06T01:57:43.314Z,101074.43
2018-12-06T01:58:47.419Z,101077.08
2018-12-06T01:59:51.592Z,101076.10
2018-12-06T02:00:55.723Z,101079.51
2018-12-06T02:01:59.853Z,101076.73
2018-12-06T02:03:03.985Z,101074.92
2018-12-06T02:04:08.149Z,101075.67
2018-12-06T02:05:12.241Z,101072.65
2018-12-06T02:06:16.265Z,101073.98
2018-12-06T02:07:20.397Z,101071.33
2018-12-06T02:08:24.405Z,101079.66
2018-12-06T02:09:29.974Z,101076.40
2018-12-06T02:10:34.028Z,101071.95
2018-12-06T02:11:39.723Z,101075.08
2018-12-06T02:12:43.727Z,101070.48
2018-12-06T02:13:47.742Z,101076.17
2018-12-06T02:14:51.749Z,101072.09
2018-12-06T02:15:55.768Z,101068.11
2018-12-06T02:16:59.813Z,101067.61
2018-12-06T02:18:04.038Z,101074.75
2018-12-06T02:19:08.371Z,101074.84
2018-12-06T02:20:12.379Z,101069.16
2018-12-06T02:21:16.378Z,101066.27
2018-12-06T02:22:20.443Z,101074.22
2018-12-06T02:23:24.496Z,101068.30
2018-12-06T02:24:28.776Z,101070.95
2018-12-06T02:25:32.791Z,101067.45
2018-12-06T02:26:36.869Z,101069.24
2018-12-06T02:27:40.985Z,101066.12
2018-12-06T02:28:45.121Z,101067.45
2018-12-06T02:29:54.275Z,101067.09
2018-12-06T02:30:58.438Z,101066.48
2018-12-06T02:32:02.483Z,101068.75
2018-12-06T02:33:06.729Z,101059.70
2018-12-06T02:34:11.273Z,101062.83
2018-12-06T02:35:15.278Z,101060.30
2018-12-06T02:36:19.598Z,101056.05
2018-12-06T02:37:23.738Z,101056.05
2018-12-06T02:38:27.803Z,101061.01
2018-12-06T02:39:31.794Z,101061.58
2018-12-06T02:40:36.030Z,101057.73
2018-12-06T02:41:40.185Z,101059.05
2018-12-06T02:42:44.200Z,101053.85
2018-12-06T02:43:48.201Z,101058.30
2018-12-06T02:44:52.186Z,101048.55
2018-12-06T02:45:56.278Z,101051.11
2018-12-06T02:47:00.358Z,101052.77
2018-12-06T02:48:04.467Z,101050.50
2018-12-06T02:49:08.615Z,101047.00
2018-12-06T02:50:12.751Z,101048.80
2018-12-06T02:51:16.889Z,101047.13
2018-12-06T02:52:21.114Z,101046.38
2018-12-06T02:53:25.324Z,101045.05
2018-12-06T02:54:29.411Z,101048.68
2018-12-06T02:55:33.407Z,101047.92
2018-12-06T02:56:37.429Z,101049.25
2018-12-06T02:57:41.535Z,101044.42
2018-12-06T02:58:45.537Z,101041.05
2018-12-06T02:59:49.617Z,101043.23
2018-12-06T03:00:53.593Z,101037.68
2018-12-06T03:01:57.721Z,101045.62
2018-12-06T03:03:01.753Z,101040.80
2018-12-06T03:04:05.848Z,101047.43
2018-12-06T03:05:09.958Z,101043.45
2018-12-06T03:06:13.941Z,101048.38
2018-12-06T03:07:17.967Z,101055.95
2018-12-06T03:08:21.958Z,101051.98
2018-12-06T03:09:26.053Z,101046.42
2018-12-06T03:10:30.133Z,101052.58
2018-12-06T03:11:34.239Z,101050.41
2018-12-06T03:12:38.407Z,101049.45
2018-12-06T03:13:42.537Z,101046.33
2018-12-06T03:14:46.623Z,101044.53
2018-12-06T03:15:50.628Z,101045.73
2018-12-06T03:16:54.798Z,101043.80
2018-12-06T03:17:58.933Z,101042.00
2018-12-06T03:19:02.976Z,101048.05
2018-12-06T03:20:07.403Z,101038.30
2018-12-06T03:21:11.577Z,101044.33
2018-12-06T03:22:15.581Z,101044.70
2018-12-06T03:23:19.601Z,101042.40
2018-12-06T03:24:23.676Z,101041.45
2018-12-06T03:25:27.999Z,101041.45
2018-12-06T03:26:32.090Z,101043.16
2018-12-06T03:27:36.209Z,101042.17
2018-12-06T03:28:40.304Z,101041.70
2018-12-06T03:29:44.381Z,101039.90
2018-12-06T03:30:48.382Z,101043.87
2018-12-06T03:31:52.490Z,101040.27
2018-12-06T03:32:56.617Z,101044.59
2018-12-06T03:34:00.748Z,101042.80
2018-12-06T03:35:05.224Z,101037.02
2018-12-06T03:36:09.396Z,101041.84
2018-12-06T03:37:13.381Z,101049.09
2018-12-06T03:38:17.504Z,101046.55
2018-12-06T03:39:21.633Z,101055.72
2018-12-06T03:40:25.688Z,101053.92
2018-12-06T03:41:29.723Z,101053.08
2018-12-06T03:42:33.779Z,101050.67
2018-12-06T03:43:37.881Z,101054.17
2018-12-06T03:44:42.003Z,101047.55
2018-12-06T03:45:45.995Z,101047.45
2018-12-06T03:46:50.145Z,101048.27
2018-12-06T03:47:54.142Z,101041.64
2018-12-06T03:48:58.180Z,101045.98
2018-12-06T03:50:02.226Z,101044.66
2018-12-06T03:51:06.305Z,101039.36
2018-12-06T03:52:10.296Z,101041.78
2018-12-06T03:53:14.308Z,101035.53
2018-12-06T03:54:18.364Z,101035.53
2018-12-06T03:55:22.530Z,101041.20
2018-12-06T03:56:26.623Z,101042.88
2018-12-06T03:57:30.693Z,101047.70
2018-12-06T03:58:34.713Z,101052.91
2018-12-06T03:59:38.767Z,101055.56
2018-12-06T04:00:42.912Z,101053.25
2018-12-06T04:01:47.484Z,101057.23
2018-12-06T04:02:51.546Z,101055.80
2018-12-06T04:03:55.648Z,101054.95
2018-12-06T04:04:59.700Z,101050.98
2018-12-06T04:06:03.865Z,101052.20
2018-12-06T04:07:07.953Z,101045.58
2018-12-06T04:08:12.197Z,101049.89
2018-12-06T04:09:16.252Z,101054.35
2018-12-06T04:10:20.297Z,101048.70
2018-12-06T04:11:24.361Z,101051.70
2018-12-06T04:12:28.566Z,101059.17
2018-12-06T04:13:32.609Z,101060.98
2018-12-06T04:14:36.775Z,101063.16
2018-12-06T04:15:40.924Z,101064.61
2018-12-06T04:16:45.397Z,101059.66
2018-12-06T04:17:49.433Z,101059.55
2018-12-06T04:18:53.922Z,101062.08
2018-12-06T04:19:57.905Z,101063.78
2018-12-06T04:21:02.131Z,101057.52
2018-12-06T04:22:06.298Z,101061.88
2018-12-06T04:23:10.472Z,101060.89
2018-12-06T04:24:14.452Z,101066.09
2018-12-06T04:25:18.569Z,101067.77
2018-12-06T04:26:22.766Z,101071.88
2018-12-06T04:27:26.830Z,101069.83
2018-12-06T04:28:30.878Z,101069.08
2018-12-06T04:29:34.893Z,101067.75
2018-12-06T04:30:38.887Z,101064.25
2018-12-06T04:31:42.869Z,101063.78
2018-12-06T04:32:46.886Z,101065.00
2018-12-06T04:33:50.979Z,101065.34
2018-12-06T04:34:55.012Z,101056.44
2018-12-06T04:35:59.255Z,101060.66
2018-12-06T04:37:03.266Z,101058.86
2018-12-06T04:38:07.323Z,101064.06
2018-12-06T04:39:11.362Z,101066.24
2018-12-06T04:40:15.526Z,101072.37
2018-12-06T04:41:19.525Z,101073.92
2018-12-06T04:42:23.642Z,101080.21
2018-12-06T04:43:27.632Z,101076.71
2018-12-06T04:44:31.646Z,101074.53
2018-12-06T04:45:35.863Z,101073.20
2018-12-06T04:46:39.916Z,101073.92
2018-12-06T04:47:43.963Z,101078.28
2018-12-06T04:48:47.947Z,101078.90
2018-12-06T04:49:52.031Z,101080.23
2018-12-06T04:50:56.055Z,101083.25
2018-12-06T04:52:00.047Z,101091.21
2018-12-06T04:53:04.182Z,101086.01
2018-12-06T04:55:18.515Z,101093.48
2018-12-06T04:56:22.618Z,101089.98
2018-12-06T04:57:26.687Z,101093.36
2018-12-06T04:58:30.743Z,101094.59
2018-12-06T04:59:41.467Z,101093.98
2018-12-06T05:00:45.519Z,101092.65
2018-12-06T05:01:49.612Z,101092.65
2018-12-06T05:02:53.717Z,101092.17
2018-12-06T05:03:57.864Z,101094.83
2018-12-06T05:05:01.951Z,101096.53
2018-12-06T05:06:06.132Z,101098.58
2018-12-06T05:07:10.178Z,101090.99
2018-12-06T05:08:14.341Z,101092.32
2018-12-06T05:09:18.408Z,101091.84
2018-12-06T05:10:22.476Z,101093.05
2018-12-06T05:11:26.481Z,101096.92
2018-12-06T05:12:30.479Z,101095.97
2018-12-06T05:13:34.446Z,101103.42
2018-12-06T05:14:38.983Z,101096.78
2018-12-06T05:15:42.978Z,101097.16
2018-12-06T05:16:47.003Z,101094.51
2018-12-06T05:17:51.002Z,101096.69
2018-12-06T05:18:55.069Z,101104.17
2018-12-06T05:19:59.199Z,101104.17
2018-12-06T05:21:03.272Z,101103.56
2018-12-06T05:22:07.443Z,101103.09
2018-12-06T05:23:11.437Z,101102.98
2018-12-06T05:24:15.462Z,101102.00
2018-12-06T05:25:19.450Z,101099.73
2018-12-06T05:26:23.668Z,101100.45
2018-12-06T05:27:27.806Z,101096.47
2018-12-06T05:28:31.878Z,101090.69
2018-12-06T05:29:35.922Z,101093.81
2018-12-06T05:30:39.930Z,101095.14
2018-12-06T05:31:44.064Z,101093.47
2018-12-06T05:32:48.057Z,101096.47
2018-12-06T05:33:52.262Z,101103.23
2018-12-06T05:34:56.374Z,101097.45
2018-12-06T05:36:00.431Z,101102.76
2018-12-06T05:37:04.531Z,101103.70
2018-12-06T05:38:08.715Z,101102.86
2018-12-06T05:39:12.802Z,101109.97
2018-12-06T05:40:16.917Z,101102.98
2018-12-06T05:41:20.943Z,101106.46
2018-12-06T05:42:25.012Z,101108.64
2018-12-06T05:43:29.046Z,101113.95
2018-12-06T05:44:33.246Z,101113.60
2018-12-06T05:45:37.246Z,101112.28
2018-12-06T05:46:41.439Z,101111.30
2018-12-06T05:47:45.620Z,101117.45
2018-12-06T05:48:49.730Z,101119.62
2018-12-06T05:49:53.787Z,101121.33
2018-12-06T05:50:58.111Z,101124.94
2018-12-06T05:52:02.216Z,101122.76
2018-12-06T05:53:06.546Z,101126.27
2018-12-06T05:54:10.634Z,101127.45
2018-12-06T05:55:14.628Z,101124.33
2018-12-06T05:56:18.798Z,101133.52
2018-12-06T05:57:22.796Z,101133.61
2018-12-06T05:58:26.867Z,101129.64
2018-12-06T05:59:30.929Z,101134.94
2018-12-06T06:00:35.159Z,101132.77
2018-12-06T06:01:39.231Z,101134.94
2018-12-06T06:02:43.287Z,101137.97
2018-12-06T06:03:47.382Z,101141.23
2018-12-06T06:04:51.469Z,101142.66
2018-12-06T06:05:55.666Z,101135.17
2018-12-06T06:07:01.889Z,101132.90
2018-12-06T06:08:06.004Z,101129.77
2018-12-06T06:09:09.975Z,101135.92
2018-12-06T06:10:13.967Z,101134.22
2018-12-06T06:11:18.106Z,101130.96
2018-12-06T06:12:22.224Z,101126.98
2018-12-06T06:13:26.258Z,101120.34
2018-12-06T06:14:30.288Z,101118.07
2018-12-06T06:15:34.479Z,101115.89
2018-12-06T06:16:38.547Z,101119.50
2018-12-06T06:17:42.613Z,101115.27
2018-12-06T06:18:46.647Z,101121.91
2018-12-06T06:19:50.630Z,101121.91
2018-12-06T06:20:54.705Z,101120.23
2018-12-06T06:21:58.897Z,101126.73
2018-12-06T06:23:02.968Z,101129.86
2018-12-06T06:24:07.302Z,101140.00
2018-12-06T06:25:11.404Z,101145.92
2018-12-06T06:26:15.723Z,101151.80
2018-12-06T06:27:20.197Z,101153.60
2018-12-06T06:28:24.304Z,101150.84
2018-12-06T06:29:28.430Z,101157.01
2018-12-06T06:30:32.501Z,101153.41
2018-12-06T06:31:36.580Z,101157.38
2018-12-06T06:32:40.863Z,101159.44
2018-12-06T06:33:44.854Z,101162.33
2018-12-06T06:34:49.034Z,101159.20
2018-12-06T06:35:53.218Z,101159.67
2018-12-06T06:36:57.247Z,101159.20
2018-12-06T06:38:01.327Z,101168.48
2018-12-06T06:39:07.274Z,101168.11
2018-12-06T06:40:11.442Z,101176.92
2018-12-06T06:41:15.496Z,101176.22
2018-12-06T06:42:19.693Z,101185.89
2018-12-06T06:43:23.821Z,101191.91
2018-12-06T06:44:28.011Z,101187.36
2018-12-06T06:45:32.045Z,101192.53
2018-12-06T06:46:36.117Z,101196.89
2018-12-06T06:47:40.251Z,101187.13
2018-12-06T06:48:44.309Z,101190.88
2018-12-06T06:49:48.481Z,101194.63
2018-12-06T06:50:52.563Z,101193.30
2018-12-06T06:51:56.834Z,101201.98
2018-12-06T06:53:00.986Z,101202.73
2018-12-06T06:54:05.074Z,101204.78
2018-12-06T06:55:09.288Z,101210.09
2018-12-06T06:56:13.379Z,101200.80
2018-12-06T06:57:17.432Z,101198.02
2018-12-06T06:58:21.596Z,101199.72
2018-12-06T06:59:26.164Z,101193.46
2018-12-06T07:00:30.716Z,101195.64
2018-12-06T07:01:34.753Z,101194.66
2018-12-06T07:02:38.853Z,101202.14
2018-12-06T07:03:42.924Z,101205.05
2018-12-06T07:04:46.928Z,101210.66
2018-12-06T07:05:51.146Z,101211.52
2018-12-06T07:06:55.271Z,101213.19
2018-12-06T07:07:59.451Z,101216.22
2018-12-06T07:09:05.784Z,101218.27
2018-12-06T07:10:10.092Z,101220.82
2018-12-06T07:11:14.185Z,101216.70
2018-12-06T07:12:18.337Z,101212.38
2018-12-06T07:13:22.359Z,101214.56
2018-12-06T07:14:26.664Z,101218.31
2018-12-06T07:15:31.051Z,101216.13
2018-12-06T07:16:35.351Z,101226.62
2018-12-06T07:17:39.439Z,101228.33
2018-12-06T07:18:43.467Z,101226.89
2018-12-06T07:19:47.577Z,101231.22
2018-12-06T07:20:51.725Z,101227.23
2018-12-06T07:21:55.950Z,101231.59
2018-12-06T07:23:01.005Z,101218.69
2018-12-06T07:24:05.358Z,101215.53
2018-12-06T07:25:10.091Z,101219.41
2018-12-06T07:26:14.210Z,101228.09
2018-12-06T07:27:18.288Z,101236.44
2018-12-06T07:28:23.326Z,101238.62
2018-12-06T07:29:27.443Z,101239.47
2018-12-06T07:30:31.616Z,101238.48
2018-12-06T07:31:35.787Z,101235.49
2018-12-06T07:32:39.984Z,101239.81
2018-12-06T07:33:44.204Z,101238.15
2018-12-06T07:34:48.367Z,101241.14
2018-12-06T07:35:52.460Z,101241.66
2018-12-06T07:36:56.663Z,101242.84
2018-12-06T07:38:00.832Z,101242.84
2018-12-06T07:39:07.747Z,101239.72
2018-12-06T07:40:11.947Z,101233.08
2018-12-06T07:41:16.106Z,101242.75
2018-12-06T07:42:20.198Z,101242.27
2018-12-06T07:43:24.239Z,101244.42
2018-12-06T07:44:28.291Z,101248.53
2018-12-06T07:45:32.443Z,101253.38
2018-12-06T07:46:36.570Z,101255.55
2018-12-06T07:47:40.655Z,101257.83
2018-12-06T07:48:44.704Z,101257.36
2018-12-06T07:49:48.753Z,101259.88
2018-12-06T07:50:52.773Z,101251.81
2018-12-06T07:51:56.989Z,101251.67
2018-12-06T07:53:01.282Z,101260.02
2018-12-06T07:54:05.463Z,101263.78
2018-12-06T07:55:09.679Z,101263.78
2018-12-06T07:56:13.752Z,101266.81
2018-12-06T07:57:17.998Z,101260.51
2018-12-06T07:58:22.187Z,101267.05
2018-12-06T07:59:26.896Z,101269.58
2018-12-06T08:00:31.010Z,101273.56
2018-12-06T08:01:35.118Z,101275.73
2018-12-06T08:02:39.312Z,101277.92
2018-12-06T08:03:43.502Z,101279.02
2018-12-06T08:04:47.531Z,101272.38
2018-12-06T08:05:51.698Z,101268.77
2018-12-06T08:06:55.832Z,101258.51
2018-12-06T08:07:59.922Z,101262.36
2018-12-06T08:09:07.772Z,101263.21
2018-12-06T08:10:12.939Z,101273.23
2018-12-06T08:11:17.146Z,101265.63
2018-12-06T08:12:21.205Z,101261.41
2018-12-06T08:13:25.614Z,101261.65
2018-12-06T08:14:29.743Z,101262.60
2018-12-06T08:15:33.767Z,101266.59
2018-12-06T08:16:37.801Z,101262.98
2018-12-06T08:17:42.025Z,101269.62
2018-12-06T08:18:46.115Z,101271.33
2018-12-06T08:19:50.255Z,101273.00
2018-12-06T08:20:54.406Z,101267.68
2018-12-06T08:21:58.866Z,101256.09
2018-12-06T08:23:02.951Z,101264.07
2018-12-06T08:24:06.994Z,101260.83
2018-12-06T08:25:11.055Z,101261.17
2018-12-06T08:26:15.238Z,101255.38
2018-12-06T08:27:19.330Z,101255.52
2018-12-06T08:28:23.606Z,101249.22
2018-12-06T08:29:27.650Z,101251.16
2018-12-06T08:30:31.744Z,101259.27
2018-12-06T08:31:35.853Z,101261.55
2018-12-06T08:32:39.919Z,101265.41
2018-12-06T08:33:44.050Z,101271.47
2018-12-06T08:34:48.261Z,101268.67
2018-12-06T08:35:52.306Z,101266.39
2018-12-06T08:36:56.358Z,101258.28
2018-12-06T08:38:00.448Z,101265.78
2018-12-06T08:39:06.455Z,101261.69
2018-12-06T08:40:10.641Z,101262.03
2018-12-06T08:41:14.747Z,101279.34
2018-12-06T08:42:18.945Z,101276.20
2018-12-06T08:43:22.965Z,101280.77
2018-12-06T08:44:27.061Z,101282.61
2018-12-06T08:45:31.331Z,101275.73
2018-12-06T08:46:35.462Z,101272.94
2018-12-06T08:47:39.537Z,101269.42
2018-12-06T08:48:43.620Z,101274.50
2018-12-06T08:49:47.780Z,101288.17
2018-12-06T08:50:51.899Z,101282.61
2018-12-06T08:51:56.618Z,101280.33
2018-12-06T08:53:00.670Z,101287.22
2018-12-06T08:54:04.747Z,101289.39
2018-12-06T08:55:08.823Z,101287.11
2018-12-06T08:56:12.882Z,101287.11
2018-12-06T08:57:17.162Z,101281.18
2018-12-06T08:58:21.275Z,101279.00
2018-12-06T08:59:25.383Z,101281.18
2018-12-06T09:00:29.538Z,101278.05
2018-12-06T09:01:33.700Z,101288.55
2018-12-06T09:02:37.776Z,101290.25
2018-12-06T09:03:41.921Z,101281.89
2018-12-06T09:04:46.040Z,101274.77
2018-12-06T09:05:50.211Z,101280.70
2018-12-06T09:06:54.332Z,101267.88
2018-12-06T09:07:58.567Z,101280.12
2018-12-06T09:09:03.699Z,101277.80
2018-12-06T09:10:08.672Z,101275.52
2018-12-06T09:11:12.819Z,101278.89
2018-12-06T09:12:16.939Z,101275.27
2018-12-06T09:13:21.496Z,101269.84
2018-12-06T09:14:25.759Z,101273.33
2018-12-06T09:15:29.752Z,101269.23
2018-12-06T09:16:34.000Z,101270.45
2018-12-06T09:17:38.092Z,101267.28
2018-12-06T09:18:42.139Z,101272.36
2018-12-06T09:19:46.239Z,101271.64
2018-12-06T09:20:50.259Z,101269.72
2018-12-06T09:21:54.371Z,101259.42
2018-12-06T09:22:58.462Z,101265.48
2018-12-06T09:24:02.556Z,101259.07
2018-12-06T09:25:06.858Z,101263.78
2018-12-06T09:26:10.918Z,101261.48
2018-12-06T09:27:14.965Z,101269.70
2018-12-06T09:28:19.011Z,101265.23
2018-12-06T09:29:23.189Z,101263.31
2018-12-06T09:30:27.315Z,101256.16
2018-12-06T09:31:31.370Z,101265.22
2018-12-06T09:32:35.398Z,101262.80
2018-12-06T09:33:50.894Z,101278.68
2018-12-06T09:34:55.017Z,101284.86
2018-12-06T09:35:59.015Z,101294.41
2018-12-06T09:37:03.171Z,101293.92
2018-12-06T09:38:07.325Z,101292.48
2018-12-06T09:39:11.711Z,101301.55
2018-12-06T09:40:15.986Z,101302.64
2018-12-06T09:41:20.060Z,101299.84
2018-12-06T09:42:24.291Z,101300.92
2018-12-06T09:43:28.295Z,101308.80
2018-12-06T09:44:32.471Z,101302.27
2018-12-06T09:45:36.788Z,101304.31
2018-12-06T09:46:40.809Z,101302.98
2018-12-06T09:47:44.901Z,101305.39
2018-12-06T09:48:48.934Z,101312.05
2018-12-06T09:49:52.990Z,101313.13
2018-12-06T09:50:57.307Z,101318.83
2018-12-06T09:52:04.150Z,101310.84
2018-12-06T09:53:08.187Z,101324.05
2018-12-06T09:54:12.205Z,101313.73
2018-12-06T09:55:16.307Z,101317.63
2018-12-06T09:56:20.492Z,101321.95
2018-12-06T09:57:24.694Z,101322.80
2018-12-06T09:58:28.862Z,101323.66
2018-12-06T09:59:33.005Z,101320.03
2018-12-06T10:00:37.024Z,101318.08
2018-12-06T10:01:41.260Z,101316.27
2018-12-06T10:02:45.354Z,101316.98
2018-12-06T10:03:49.378Z,101316.50
2018-12-06T10:04:53.439Z,101324.38
2018-12-06T10:05:57.576Z,101323.28
2018-12-06T10:07:01.758Z,101326.31
2018-12-06T10:08:06.169Z,101328.36
2018-12-06T10:09:10.816Z,101328.25
2018-12-06T10:10:15.139Z,101328.59
2018-12-06T10:11:19.459Z,101328.48
2018-12-06T10:12:23.603Z,101323.86
2018-12-06T10:13:27.858Z,101327.12
2018-12-06T10:14:31.973Z,101324.69
2018-12-06T10:15:36.093Z,101328.58
2018-12-06T10:16:40.264Z,101321.80
2018-12-06T10:17:44.491Z,101319.00
2018-12-06T10:18:48.493Z,101323.70
2018-12-06T10:19:52.579Z,101319.23
2018-12-06T10:20:56.574Z,101319.11
2018-12-06T10:22:00.983Z,101318.97
2018-12-06T10:23:05.102Z,101311.34
2018-12-06T10:24:09.143Z,101314.02
2018-12-06T10:25:13.203Z,101315.34
2018-12-06T10:26:17.227Z,101323.45
2018-12-06T10:27:21.250Z,101315.97
2018-12-06T10:28:25.398Z,101327.59
2018-12-06T10:29:29.740Z,101324.44
2018-12-06T10:30:34.059Z,101324.92
2018-12-06T10:31:38.116Z,101325.63
2018-12-06T10:32:42.129Z,101329.04
2018-12-06T10:33:46.244Z,101327.45
2018-12-06T10:34:53.369Z,101328.64
2018-12-06T10:35:56.394Z,101340.89
2018-12-06T10:37:00.465Z,101336.27
2018-12-06T10:38:04.462Z,101337.97
2018-12-06T10:39:08.990Z,101338.68
2018-12-06T10:40:13.168Z,101335.39
2018-12-06T10:41:17.234Z,101331.65
2018-12-06T10:42:21.500Z,101334.54
2018-12-06T10:43:25.620Z,101334.54
2018-12-06T10:44:31.189Z,101335.88
2018-12-06T10:45:35.441Z,101336.25
2018-12-06T10:46:39.635Z,101342.91
2018-12-06T10:47:43.695Z,101338.39
2018-12-06T10:48:47.747Z,101339.14
2018-12-06T10:49:51.826Z,101332.95
2018-12-06T10:51:07.583Z,101333.33
2018-12-06T10:52:12.022Z,101336.33
2018-12-06T10:53:16.125Z,101336.70
2018-12-06T10:54:20.813Z,101335.73
2018-12-06T10:55:24.994Z,101337.06
2018-12-06T10:56:29.099Z,101330.88
2018-12-06T10:57:33.111Z,101332.59
2018-12-06T10:58:37.693Z,101321.07
2018-12-06T10:59:41.662Z,101326.41
2018-12-06T11:00:57.151Z,101321.92
2018-12-06T11:02:02.495Z,101324.44
2018-12-06T11:03:14.022Z,101322.74
2018-12-06T11:04:18.284Z,101331.59
2018-12-06T11:05:22.389Z,101331.73
2018-12-06T11:06:26.691Z,101332.07
2018-12-06T11:07:30.823Z,101329.06
2018-12-06T11:08:34.797Z,101324.33
2018-12-06T11:09:38.795Z,101321.66
2018-12-06T11:10:42.931Z,101329.33
2018-12-06T11:11:47.041Z,101329.81
2018-12-06T11:12:51.050Z,101336.81
2018-12-06T11:13:55.187Z,101329.33
2018-12-06T11:14:59.274Z,101333.33
2018-12-06T11:16:03.613Z,101330.66
2018-12-06T11:17:07.719Z,101331.63
2018-12-06T11:18:11.749Z,101334.14
2018-12-06T11:19:15.759Z,101335.98
2018-12-06T11:20:19.819Z,101340.22
2018-12-06T11:21:24.015Z,101339.73
2018-12-06T11:22:28.034Z,101343.25
2018-12-06T11:23:32.046Z,101340.92
2018-12-06T11:24:36.203Z,101342.63
2018-12-06T11:25:40.205Z,101346.98
2018-12-06T11:26:44.246Z,101343.95
2018-12-06T11:27:48.370Z,101343.11
2018-12-06T11:28:52.446Z,101349.40
2018-12-06T11:29:56.738Z,101347.10
2018-12-06T11:31:00.876Z,101359.47
2018-12-06T11:32:05.198Z,101358.98
2018-12-06T11:33:09.281Z,101362.13
2018-12-06T11:34:13.454Z,101358.98
2018-12-06T11:35:17.504Z,101363.09
2018-12-06T11:36:22.583Z,101366.13
2018-12-06T11:37:26.723Z,101366.61
2018-12-06T11:38:31.414Z,101360.80
2018-12-06T11:39:36.070Z,101372.31
2018-12-06T11:40:40.154Z,101369.28
2018-12-06T11:41:44.262Z,101364.80
2018-12-06T11:42:48.311Z,101371.94
2018-12-06T11:43:52.526Z,101369.77
2018-12-06T11:44:56.682Z,101368.05
2018-12-06T11:46:00.704Z,101366.39
2018-12-06T11:47:04.887Z,101366.02
2018-12-06T11:48:08.952Z,101369.53
2018-12-06T11:49:13.124Z,101368.68
2018-12-06T11:50:17.354Z,101365.79
2018-12-06T11:51:21.460Z,101371.45
2018-12-06T11:52:25.487Z,101370.64
2018-12-06T11:53:29.536Z,101369.42
2018-12-06T11:54:33.614Z,101372.56
2018-12-06T11:55:38.138Z,101374.89
2018-12-06T11:56:42.689Z,101371.86
2018-12-06T11:57:46.799Z,101372.11
2018-12-06T11:58:51.518Z,101375.36
2018-12-06T11:59:56.190Z,101368.47
2018-12-06T12:01:01.142Z,101366.44
2018-12-06T12:02:09.934Z,101374.91
2018-12-06T12:03:11.327Z,101363.88
2018-12-06T12:04:15.519Z,101367.88
2018-12-06T12:05:20.118Z,101371.88
2018-12-06T12:06:25.095Z,101369.20
2018-12-06T12:07:29.550Z,101364.25
2018-12-06T12:08:33.755Z,101365.95
2018-12-06T12:09:38.182Z,101362.77
2018-12-06T12:10:42.471Z,101364.63
2018-12-06T12:11:46.538Z,101365.33
2018-12-06T12:12:50.783Z,101369.33
2018-12-06T12:13:54.847Z,101360.96
2018-12-06T12:14:59.000Z,101364.00